createdAt,value
2023-04-26T00:02:21.216Z,100.00
2023-04-26T00:04:56.248Z,100.00
2023-04-26T00:07:24.948Z,100.00
2023-04-26T00:09:52.807Z,100.00
2023-04-26T00:12:20.187Z,100.00
2023-04-26T00:14:47.180Z,100.00
2023-04-26T00:17:14.231Z,100.00
2023-04-26T00:19:41.421Z,100.00
2023-04-26T00:22:08.873Z,100.00
2023-04-26T00:24:36.322Z,100.00
2023-04-26T00:27:08.975Z,100.00
2023-04-26T00:29:37.336Z,100.00
2023-04-26T00:32:04.687Z,100.00
2023-04-26T00:34:36.121Z,100.00
2023-04-26T00:37:04.826Z,100.00
2023-04-26T00:39:32.080Z,100.00
2023-04-26T00:41:59.099Z,100.00
2023-04-26T00:44:26.094Z,100.00
2023-04-26T00:46:54.125Z,100.00
2023-04-26T00:49:25.440Z,100.00
2023-04-26T00:51:53.688Z,100.00
2023-04-26T00:54:21.692Z,100.00
2023-04-26T00:56:52.092Z,100.00
2023-04-26T00:59:21.075Z,100.00
2023-04-26T01:01:49.177Z,100.00
2023-04-26T01:04:17.893Z,100.00
2023-04-26T01:06:45.998Z,100.00
2023-04-26T01:09:15.540Z,100.00
2023-04-26T01:11:43.831Z,100.00
2023-04-26T01:14:11.442Z,100.00
2023-04-26T01:16:40.890Z,100.00
2023-04-26T01:19:13.083Z,100.00
2023-04-26T01:21:41.619Z,100.00
2023-04-26T01:24:13.673Z,100.00
2023-04-26T01:26:46.567Z,100.00
2023-04-26T01:29:21.451Z,100.00
2023-04-26T01:31:49.167Z,100.00
2023-04-26T01:34:16.724Z,100.00
2023-04-26T01:36:43.689Z,100.00
2023-04-26T01:39:10.747Z,100.00
2023-04-26T01:41:37.923Z,100.00
2023-04-26T01:44:05.367Z,100.00
2023-04-26T01:46:32.439Z,100.00
2023-04-26T01:48:59.651Z,100.00
2023-04-26T01:51:27.199Z,100.00
2023-04-26T01:53:54.229Z,100.00
2023-04-26T01:56:23.908Z,100.00
2023-04-26T01:58:51.415Z,100.00
2023-04-26T02:01:18.768Z,100.00
2023-04-26T02:03:45.804Z,100.00
2023-04-26T02:06:12.752Z,100.00
2023-04-26T02:08:39.699Z,100.00
2023-04-26T02:11:07.258Z,100.00
2023-04-26T02:13:34.318Z,100.00
2023-04-26T02:16:01.273Z,100.00
2023-04-26T02:18:29.816Z,100.00
2023-04-26T02:20:56.899Z,100.00
2023-04-26T02:23:24.514Z,100.00
2023-04-26T02:25:51.808Z,100.00
2023-04-26T02:28:18.853Z,100.00
2023-04-26T02:30:45.792Z,100.00
2023-04-26T02:33:12.726Z,100.00
2023-04-26T02:35:39.782Z,100.00
2023-04-26T02:38:07.910Z,100.00
2023-04-26T02:40:34.895Z,100.00
2023-04-26T02:43:01.880Z,100.00
2023-04-26T02:45:28.894Z,100.00
2023-04-26T02:47:56.119Z,100.00
2023-04-26T02:50:23.800Z,100.00
2023-04-26T02:52:50.864Z,100.00
2023-04-26T02:55:17.851Z,100.00
2023-04-26T02:57:44.862Z,100.00
2023-04-26T03:00:14.230Z,100.00
2023-04-26T03:02:42.022Z,100.00
2023-04-26T03:05:10.646Z,100.00
2023-04-26T03:07:37.975Z,100.00
2023-04-26T03:10:05.841Z,100.00
2023-04-26T03:12:32.896Z,100.00
2023-04-26T03:14:59.921Z,100.00
2023-04-26T03:17:26.917Z,100.00
2023-04-26T03:19:53.936Z,100.00
2023-04-26T03:22:21.205Z,100.00
2023-04-26T03:24:49.168Z,100.00
2023-04-26T03:27:16.565Z,100.00
2023-04-26T03:29:44.212Z,100.00
2023-04-26T03:32:11.530Z,100.00
2023-04-26T03:34:38.607Z,100.00
2023-04-26T03:37:05.645Z,100.00
2023-04-26T03:39:32.600Z,100.00
2023-04-26T03:41:59.646Z,100.00
2023-04-26T03:44:27.172Z,100.00
2023-04-26T03:46:55.052Z,100.00
2023-04-26T03:49:22.120Z,100.00
2023-04-26T03:51:49.165Z,100.00
2023-04-26T03:54:16.210Z,100.00
2023-04-26T03:56:43.233Z,100.00
2023-04-26T03:59:10.479Z,100.00
2023-04-26T04:01:37.973Z,100.00
2023-04-26T04:04:05.513Z,100.00
2023-04-26T04:06:32.992Z,100.00
2023-04-26T04:09:00.065Z,100.00
2023-04-26T04:11:27.055Z,100.00
2023-04-26T04:13:54.041Z,100.00
2023-04-26T04:16:21.891Z,100.00
2023-04-26T04:18:49.037Z,100.00
2023-04-26T04:21:16.012Z,100.00
2023-04-26T04:23:44.348Z,100.00
2023-04-26T04:26:12.690Z,100.00
2023-04-26T04:28:41.510Z,100.00
2023-04-26T04:31:11.724Z,100.00
2023-04-26T04:33:39.225Z,100.00
2023-04-26T04:36:07.052Z,100.00
2023-04-26T04:38:34.288Z,100.00
2023-04-26T04:41:01.313Z,100.00
2023-04-26T04:43:28.436Z,100.00
2023-04-26T04:45:55.613Z,100.00
2023-04-26T04:48:22.710Z,100.00
2023-04-26T04:50:50.765Z,100.00
2023-04-26T04:53:17.921Z,100.00
2023-04-26T04:55:44.976Z,100.00
2023-04-26T04:58:12.333Z,100.00
2023-04-26T05:00:39.745Z,100.00
2023-04-26T05:03:09.923Z,100.00
2023-04-26T05:05:37.234Z,100.00
2023-04-26T05:08:04.504Z,100.00
2023-04-26T05:10:32.098Z,100.00
2023-04-26T05:12:59.160Z,100.00
2023-04-26T05:15:26.502Z,100.00
2023-04-26T05:17:55.830Z,100.00
2023-04-26T05:20:23.130Z,100.00
2023-04-26T05:22:50.139Z,100.00
2023-04-26T05:25:17.706Z,100.00
2023-04-26T05:27:45.951Z,100.00
2023-04-26T05:30:13.843Z,100.00
2023-04-26T05:32:41.698Z,100.00
2023-04-26T05:35:09.181Z,100.00
2023-04-26T05:37:36.395Z,100.00
2023-04-26T05:40:05.171Z,100.00
2023-04-26T05:42:32.458Z,100.00
2023-04-26T05:44:59.644Z,100.00
2023-04-26T05:47:26.753Z,100.00
2023-04-26T05:49:53.842Z,100.00
2023-04-26T05:52:21.432Z,100.00
2023-04-26T05:54:48.492Z,100.00
2023-04-26T05:57:15.684Z,100.00
2023-04-26T05:59:42.643Z,100.00
2023-04-26T06:02:09.747Z,100.00
2023-04-26T06:04:37.293Z,100.00
2023-04-26T06:07:04.328Z,100.00
2023-04-26T06:09:35.870Z,100.00
2023-04-26T06:12:04.015Z,100.00
2023-04-26T06:14:31.248Z,100.00
2023-04-26T06:16:58.537Z,100.00
2023-04-26T06:19:25.940Z,100.00
2023-04-26T06:21:55.344Z,100.00
2023-04-26T06:24:23.646Z,100.00
2023-04-26T06:26:50.613Z,100.00
2023-04-26T06:29:18.028Z,100.00
2023-04-26T06:31:45.005Z,100.00
2023-04-26T06:34:12.043Z,100.00
2023-04-26T06:36:39.041Z,100.00
2023-04-26T06:39:06.330Z,100.00
2023-04-26T06:41:33.418Z,100.00
2023-04-26T06:44:00.427Z,100.00
2023-04-26T06:46:27.517Z,100.00
2023-04-26T06:48:57.577Z,100.00
2023-04-26T06:51:24.702Z,100.00
2023-04-26T06:53:52.834Z,100.00
2023-04-26T06:56:20.141Z,100.00
2023-04-26T06:59:00.879Z,100.00
2023-04-26T07:01:29.473Z,100.00
2023-04-26T07:04:00.176Z,100.00
2023-04-26T07:06:27.503Z,100.00
2023-04-26T07:08:54.669Z,100.00
2023-04-26T07:11:24.600Z,100.00
2023-04-26T07:13:53.398Z,100.00
2023-04-26T07:16:20.793Z,100.00
2023-04-26T07:18:51.769Z,100.00
2023-04-26T07:21:19.001Z,100.00
2023-04-26T07:23:46.148Z,100.00
2023-04-26T07:26:13.321Z,100.00
2023-04-26T07:28:40.373Z,100.00
2023-04-26T07:31:09.579Z,100.00
2023-04-26T07:33:38.101Z,100.00
2023-04-26T07:36:05.895Z,100.00
2023-04-26T07:38:32.859Z,100.00
2023-04-26T07:41:01.305Z,100.00
2023-04-26T07:43:29.898Z,100.00
2023-04-26T07:46:03.281Z,100.00
2023-04-26T07:48:31.162Z,100.00
2023-04-26T07:51:06.813Z,100.00
2023-04-26T07:53:33.862Z,100.00
2023-04-26T07:56:01.086Z,100.00
2023-04-26T07:58:28.079Z,100.00
2023-04-26T08:00:55.191Z,100.00
2023-04-26T08:03:22.359Z,100.00
2023-04-26T08:05:49.895Z,100.00
2023-04-26T08:08:18.892Z,100.00
2023-04-26T08:10:46.488Z,100.00
2023-04-26T08:13:13.512Z,100.00
2023-04-26T08:15:40.650Z,100.00
2023-04-26T08:18:07.817Z,100.00
2023-04-26T08:20:34.922Z,100.00
2023-04-26T08:23:02.041Z,100.00
2023-04-26T08:25:29.359Z,100.00
2023-04-26T08:27:56.422Z,100.00
2023-04-26T08:30:23.688Z,100.00
2023-04-26T08:32:50.885Z,100.00
2023-04-26T08:35:18.128Z,100.00
2023-04-26T08:37:45.112Z,100.00
2023-04-26T08:40:12.199Z,100.00
2023-04-26T08:42:44.097Z,100.00
2023-04-26T08:45:11.771Z,100.00
2023-04-26T08:47:47.929Z,100.00
2023-04-26T08:50:18.759Z,100.00
2023-04-26T08:52:52.212Z,100.00
2023-04-26T08:55:21.857Z,100.00
2023-04-26T08:57:50.827Z,100.00
2023-04-26T09:00:19.692Z,100.00
2023-04-26T09:02:51.220Z,100.00
2023-04-26T09:05:24.928Z,100.00
2023-04-26T09:07:57.318Z,100.00
2023-04-26T09:10:24.914Z,100.00
2023-04-26T09:12:53.639Z,100.00
2023-04-26T09:15:27.776Z,100.00
2023-04-26T09:17:54.933Z,100.00
2023-04-26T09:20:28.484Z,100.00
2023-04-26T09:23:07.425Z,95.50
2023-04-26T09:25:35.259Z,92.99
2023-04-26T09:28:18.365Z,88.61
2023-04-26T09:30:45.543Z,85.80
2023-04-26T09:33:12.709Z,84.20
2023-04-26T09:35:44.168Z,82.52
2023-04-26T09:38:18.661Z,80.70
2023-04-26T09:40:49.189Z,80.03
2023-04-26T09:43:18.676Z,78.79
2023-04-26T09:45:57.732Z,77.58
2023-04-26T09:48:34.382Z,77.14
2023-04-26T09:51:04.294Z,76.45
2023-04-26T09:54:01.337Z,73.73
2023-04-26T09:56:28.469Z,73.56
2023-04-26T09:59:05.319Z,72.48
2023-04-26T10:01:33.427Z,71.39
2023-04-26T10:04:04.804Z,70.41
2023-04-26T10:06:33.049Z,69.58
2023-04-26T10:09:02.543Z,68.66
2023-04-26T10:11:30.850Z,68.19
2023-04-26T10:13:58.649Z,68.24
2023-04-26T10:16:26.151Z,67.74
2023-04-26T10:18:53.382Z,67.83
2023-04-26T10:21:28.914Z,67.27
2023-04-26T10:23:56.683Z,67.90
2023-04-26T10:26:49.499Z,66.59
2023-04-26T10:29:16.578Z,66.85
2023-04-26T10:32:06.604Z,64.85
2023-04-26T10:34:37.042Z,64.58
2023-04-26T10:37:16.147Z,63.28
2023-04-26T10:39:45.472Z,62.62
2023-04-26T10:42:27.689Z,61.48
2023-04-26T10:45:00.041Z,60.83
2023-04-26T10:47:37.107Z,60.34
2023-04-26T10:50:10.727Z,60.30
2023-04-26T10:52:59.162Z,59.38
2023-04-26T10:55:43.030Z,58.40
2023-04-26T10:58:33.463Z,57.71
2023-04-26T11:01:17.673Z,58.05
2023-04-26T11:03:57.135Z,58.05
2023-04-26T11:06:26.877Z,58.07
2023-04-26T11:08:54.806Z,58.09
2023-04-26T11:11:29.053Z,57.70
2023-04-26T11:13:56.730Z,57.98
2023-04-26T11:16:28.857Z,58.04
2023-04-26T11:18:56.395Z,57.76
2023-04-26T11:21:23.473Z,57.34
2023-04-26T11:23:55.133Z,57.44
2023-04-26T11:26:22.392Z,57.07
2023-04-26T11:28:49.785Z,56.87
2023-04-26T11:31:19.448Z,56.36
2023-04-26T11:33:49.839Z,56.31
2023-04-26T11:36:19.643Z,55.48
2023-04-26T11:38:46.887Z,55.52
2023-04-26T11:41:14.023Z,55.25
2023-04-26T11:43:41.252Z,55.54
2023-04-26T11:46:10.066Z,55.25
2023-04-26T11:48:38.994Z,54.40
2023-04-26T11:51:08.406Z,53.82
2023-04-26T11:53:40.346Z,53.26
2023-04-26T11:56:27.839Z,52.74
2023-04-26T11:58:55.159Z,53.20
2023-04-26T12:01:24.995Z,52.73
2023-04-26T12:03:57.970Z,52.74
2023-04-26T12:06:46.263Z,52.67
2023-04-26T12:09:14.040Z,53.36
2023-04-26T12:11:41.309Z,53.43
2023-04-26T12:14:10.141Z,53.38
2023-04-26T12:16:37.789Z,53.09
2023-04-26T12:19:09.850Z,53.32
2023-04-26T12:21:44.435Z,53.43
2023-04-26T12:24:39.114Z,53.26
2023-04-26T12:27:07.858Z,53.43
2023-04-26T12:29:35.794Z,53.51
2023-04-26T12:32:04.181Z,53.51
2023-04-26T12:34:31.602Z,53.22
2023-04-26T12:37:01.159Z,53.35
2023-04-26T12:39:28.252Z,53.40
2023-04-26T12:41:55.398Z,52.90
2023-04-26T12:44:22.873Z,52.88
2023-04-26T12:46:50.341Z,52.70
2023-04-26T12:49:17.496Z,52.28
2023-04-26T12:51:44.538Z,52.89
2023-04-26T12:54:11.546Z,53.04
2023-04-26T12:56:43.750Z,52.63
2023-04-26T12:59:11.125Z,52.36
2023-04-26T13:01:38.355Z,52.59
2023-04-26T13:04:06.035Z,52.57
2023-04-26T13:06:34.009Z,52.46
2023-04-26T13:09:01.700Z,52.48
2023-04-26T13:11:28.801Z,52.50
2023-04-26T13:13:55.975Z,52.34
2023-04-26T13:16:24.409Z,52.34
2023-04-26T13:18:51.670Z,52.32
2023-04-26T13:21:18.871Z,52.19
2023-04-26T13:23:46.799Z,51.90
2023-04-26T13:26:18.972Z,51.78
2023-04-26T13:28:47.450Z,51.79
2023-04-26T13:31:17.075Z,51.62
2023-04-26T13:33:45.785Z,51.41
2023-04-26T13:36:12.844Z,51.18
2023-04-26T13:38:40.538Z,50.82
2023-04-26T13:41:07.913Z,50.51
2023-04-26T13:43:35.232Z,50.46
2023-04-26T13:46:02.372Z,50.38
2023-04-26T13:48:29.799Z,50.54
2023-04-26T13:50:57.048Z,50.37
2023-04-26T13:53:24.194Z,50.61
2023-04-26T13:55:51.196Z,50.67
2023-04-26T13:58:18.443Z,50.72
2023-04-26T14:00:45.685Z,50.88
2023-04-26T14:03:12.970Z,50.74
2023-04-26T14:05:40.036Z,50.69
2023-04-26T14:08:08.190Z,50.68
2023-04-26T14:10:35.223Z,50.77
2023-04-26T14:13:02.301Z,50.84
2023-04-26T14:15:29.301Z,50.74
2023-04-26T14:17:56.340Z,50.96
2023-04-26T14:20:23.367Z,51.23
2023-04-26T14:22:50.505Z,50.99
2023-04-26T14:25:17.684Z,51.13
2023-04-26T14:27:44.697Z,51.02
2023-04-26T14:30:12.099Z,51.34
2023-04-26T14:32:39.267Z,51.08
2023-04-26T14:35:06.592Z,51.29
2023-04-26T14:37:33.654Z,51.29
2023-04-26T14:40:01.050Z,51.01
2023-04-26T14:42:28.588Z,50.94
2023-04-26T14:44:59.041Z,51.06
2023-04-26T14:47:26.282Z,50.83
2023-04-26T14:49:53.358Z,50.91
2023-04-26T14:52:20.882Z,51.04
2023-04-26T14:54:47.885Z,51.05
2023-04-26T14:57:14.866Z,50.89
2023-04-26T14:59:42.244Z,50.78
2023-04-26T15:02:09.251Z,50.91
2023-04-26T15:04:37.830Z,51.16
2023-04-26T15:07:05.080Z,51.00
2023-04-26T15:09:32.466Z,51.08
2023-04-26T15:11:59.486Z,51.07
2023-04-26T15:14:26.981Z,51.08
2023-04-26T15:16:54.755Z,51.02
2023-04-26T15:19:21.960Z,51.10
2023-04-26T15:21:49.472Z,51.22
2023-04-26T15:24:16.482Z,51.16
2023-04-26T15:26:43.554Z,50.99
2023-04-26T15:29:10.668Z,50.78
2023-04-26T15:31:37.731Z,51.00
2023-04-26T15:34:05.340Z,50.59
2023-04-26T15:36:32.440Z,50.70
2023-04-26T15:38:59.512Z,50.61
2023-04-26T15:41:26.735Z,50.68
2023-04-26T15:43:57.300Z,50.77
2023-04-26T15:46:24.426Z,50.92
2023-04-26T15:48:51.480Z,51.02
2023-04-26T15:51:18.739Z,51.13
2023-04-26T15:53:45.765Z,50.80
2023-04-26T15:56:17.862Z,50.20
2023-04-26T15:58:48.484Z,49.91
2023-04-26T16:01:15.779Z,49.76
2023-04-26T16:03:46.517Z,49.51
2023-04-26T16:06:14.610Z,49.42
2023-04-26T16:08:41.794Z,49.51
2023-04-26T16:11:08.782Z,49.43
2023-04-26T16:13:36.117Z,49.02
2023-04-26T16:16:10.675Z,48.75
2023-04-26T16:18:39.774Z,48.84
2023-04-26T16:21:12.237Z,49.23
2023-04-26T16:23:41.851Z,49.36
2023-04-26T16:26:09.567Z,49.44
2023-04-26T16:28:36.795Z,49.52
2023-04-26T16:31:03.965Z,48.93
2023-04-26T16:33:31.018Z,48.84
2023-04-26T16:35:58.139Z,48.64
2023-04-26T16:38:25.159Z,48.75
2023-04-26T16:40:59.694Z,48.91
2023-04-26T16:43:30.720Z,48.99
2023-04-26T16:46:07.023Z,48.65
2023-04-26T16:48:36.178Z,48.83
2023-04-26T16:51:07.351Z,49.00
2023-04-26T16:53:35.982Z,49.33
2023-04-26T16:56:03.876Z,49.44
2023-04-26T16:58:30.988Z,49.36
2023-04-26T17:00:58.027Z,49.59
2023-04-26T17:03:25.356Z,49.89
2023-04-26T17:05:52.793Z,50.16
2023-04-26T17:08:20.214Z,50.35
2023-04-26T17:10:47.974Z,50.64
2023-04-26T17:13:15.267Z,50.73
2023-04-26T17:15:45.141Z,51.09
2023-04-26T17:18:12.299Z,51.09
2023-04-26T17:20:39.449Z,51.68
2023-04-26T17:23:07.981Z,51.76
2023-04-26T17:25:35.015Z,51.82
2023-04-26T17:28:02.053Z,52.14
2023-04-26T17:30:29.102Z,52.53
2023-04-26T17:32:56.430Z,52.67
2023-04-26T17:35:23.532Z,52.58
2023-04-26T17:37:50.713Z,52.94
2023-04-26T17:40:19.676Z,53.24
2023-04-26T17:42:46.917Z,53.16
2023-04-26T17:45:14.754Z,53.58
2023-04-26T17:47:43.040Z,53.48
2023-04-26T17:50:10.790Z,53.51
2023-04-26T17:52:38.390Z,53.80
2023-04-26T17:55:08.314Z,53.90
2023-04-26T17:57:36.436Z,54.09
2023-04-26T18:00:04.659Z,54.11
2023-04-26T18:02:31.979Z,54.59
2023-04-26T18:04:59.166Z,54.58
2023-04-26T18:07:26.594Z,54.77
2023-04-26T18:09:53.561Z,55.01
2023-04-26T18:12:20.806Z,54.97
2023-04-26T18:14:47.941Z,55.24
2023-04-26T18:17:15.395Z,55.53
2023-04-26T18:19:42.687Z,55.66
2023-04-26T18:22:09.917Z,56.00
2023-04-26T18:24:37.419Z,56.32
2023-04-26T18:27:04.593Z,56.64
2023-04-26T18:29:32.087Z,56.73
2023-04-26T18:31:59.358Z,56.88
2023-04-26T18:34:26.965Z,56.89
2023-04-26T18:36:54.163Z,57.28
2023-04-26T18:39:21.388Z,57.65
2023-04-26T18:41:48.979Z,57.54
2023-04-26T18:44:16.234Z,57.78
2023-04-26T18:46:43.479Z,57.94
2023-04-26T18:49:11.118Z,58.40
2023-04-26T18:51:38.208Z,58.60
2023-04-26T18:54:05.549Z,58.74
2023-04-26T18:56:32.658Z,58.92
2023-04-26T18:58:59.747Z,59.18
2023-04-26T19:01:26.971Z,59.44
2023-04-26T19:03:54.278Z,60.06
2023-04-26T19:06:22.287Z,60.01
2023-04-26T19:08:49.390Z,60.74
2023-04-26T19:11:16.465Z,61.04
2023-04-26T19:13:43.495Z,61.49
2023-04-26T19:16:11.228Z,61.71
2023-04-26T19:18:40.662Z,62.09
2023-04-26T19:21:08.406Z,62.08
2023-04-26T19:23:36.698Z,62.42
2023-04-26T19:26:14.384Z,62.55
2023-04-26T19:28:41.713Z,62.58
2023-04-26T19:31:08.808Z,62.94
2023-04-26T19:33:36.968Z,63.30
2023-04-26T19:36:04.446Z,63.53
2023-04-26T19:38:34.160Z,63.94
2023-04-26T19:41:01.843Z,64.63
2023-04-26T19:43:28.868Z,64.54
2023-04-26T19:45:56.066Z,64.89
2023-04-26T19:48:23.101Z,64.80
2023-04-26T19:50:50.148Z,65.41
2023-04-26T19:53:17.251Z,65.34
2023-04-26T19:55:44.311Z,65.89
2023-04-26T19:58:11.517Z,65.75
2023-04-26T20:00:39.922Z,66.00
2023-04-26T20:03:07.201Z,66.33
2023-04-26T20:05:34.568Z,66.62
2023-04-26T20:08:02.068Z,66.48
2023-04-26T20:10:36.229Z,66.99
2023-04-26T20:13:03.239Z,66.98
2023-04-26T20:15:33.907Z,67.51
2023-04-26T20:18:02.402Z,67.80
2023-04-26T20:20:29.577Z,68.10
2023-04-26T20:22:56.608Z,68.23
2023-04-26T20:25:23.756Z,68.45
2023-04-26T20:27:51.014Z,69.01
2023-04-26T20:30:18.105Z,69.35
2023-04-26T20:32:45.132Z,69.59
2023-04-26T20:35:13.718Z,70.24
2023-04-26T20:37:40.894Z,70.78
2023-04-26T20:40:09.292Z,71.24
2023-04-26T20:42:36.386Z,71.77
2023-04-26T20:45:03.956Z,72.27
2023-04-26T20:47:31.413Z,72.95
2023-04-26T20:49:58.576Z,73.97
2023-04-26T20:52:25.660Z,75.15
2023-04-26T20:54:52.683Z,76.16
2023-04-26T20:57:19.710Z,77.17
2023-04-26T20:59:46.765Z,78.62
2023-04-26T21:02:13.925Z,79.89
2023-04-26T21:04:42.810Z,81.37
2023-04-26T21:07:10.874Z,82.64
2023-04-26T21:09:38.176Z,83.96
2023-04-26T21:12:05.760Z,85.23
2023-04-26T21:14:32.898Z,86.49
2023-04-26T21:17:01.426Z,87.92
2023-04-26T21:19:28.576Z,89.01
2023-04-26T21:21:55.684Z,89.76
2023-04-26T21:24:22.817Z,91.28
2023-04-26T21:26:50.054Z,92.03
2023-04-26T21:29:17.119Z,92.63
2023-04-26T21:31:44.369Z,93.78
2023-04-26T21:34:11.634Z,95.53
2023-04-26T21:36:38.787Z,96.54
2023-04-26T21:39:06.048Z,96.89
2023-04-26T21:41:33.024Z,98.03
2023-04-26T21:44:00.127Z,99.60
2023-04-26T21:46:27.163Z,100.00
2023-04-26T21:48:54.122Z,100.00
2023-04-26T21:51:21.201Z,100.00
2023-04-26T21:53:48.249Z,100.00
2023-04-26T21:56:15.305Z,100.00
2023-04-26T21:58:42.803Z,100.00
2023-04-26T22:01:12.324Z,100.00
2023-04-26T22:03:39.977Z,100.00
2023-04-26T22:06:08.646Z,100.00
2023-04-26T22:08:36.002Z,100.00
2023-04-26T22:11:03.326Z,100.00
2023-04-26T22:13:31.397Z,100.00
2023-04-26T22:15:58.507Z,100.00
2023-04-26T22:18:26.467Z,100.00
2023-04-26T22:20:53.946Z,100.00
2023-04-26T22:23:21.170Z,100.00
2023-04-26T22:25:48.199Z,100.00
2023-04-26T22:28:16.697Z,100.00
2023-04-26T22:30:43.772Z,100.00
2023-04-26T22:33:12.265Z,100.00
2023-04-26T22:35:39.715Z,100.00
2023-04-26T22:38:06.763Z,100.00
2023-04-26T22:40:33.863Z,100.00
2023-04-26T22:43:01.076Z,100.00
2023-04-26T22:45:28.235Z,100.00
2023-04-26T22:47:55.370Z,100.00
2023-04-26T22:50:22.731Z,100.00
2023-04-26T22:52:52.171Z,100.00
2023-04-26T22:55:19.211Z,100.00
2023-04-26T22:57:46.998Z,100.00
2023-04-26T23:00:14.839Z,100.00
2023-04-26T23:02:42.163Z,100.00
2023-04-26T23:05:10.330Z,100.00
2023-04-26T23:07:39.044Z,100.00
2023-04-26T23:10:07.829Z,100.00
2023-04-26T23:12:38.422Z,100.00
2023-04-26T23:15:06.291Z,100.00
2023-04-26T23:17:34.241Z,100.00
2023-04-26T23:20:01.794Z,100.00
2023-04-26T23:22:28.796Z,100.00
2023-04-26T23:24:55.933Z,100.00
2023-04-26T23:27:24.762Z,100.00
2023-04-26T23:29:51.872Z,100.00
2023-04-26T23:32:18.901Z,100.00
2023-04-26T23:34:45.964Z,100.00
2023-04-26T23:37:12.957Z,100.00
2023-04-26T23:39:39.971Z,100.00
2023-04-26T23:42:07.126Z,100.00
2023-04-26T23:44:34.127Z,100.00
2023-04-26T23:47:01.229Z,100.00
2023-04-26T23:49:28.614Z,100.00
2023-04-26T23:51:55.745Z,100.00
2023-04-26T23:54:22.836Z,100.00
2023-04-26T23:56:49.860Z,100.00
2023-04-26T23:59:16.963Z,100.00
